createdAt,value
2022-12-12T00:00:24.139Z,50.27
2022-12-12T00:01:19.355Z,53.33
2022-12-12T00:02:18.460Z,50.43
2022-12-12T00:03:18.613Z,44.79
2022-12-12T00:04:18.393Z,51.24
2022-12-12T00:05:18.335Z,52.85
2022-12-12T00:06:18.288Z,44.47
2022-12-12T00:07:18.281Z,42.38
2022-12-12T00:08:18.368Z,44.63
2022-12-12T00:09:18.257Z,44.79
2022-12-12T00:10:18.320Z,43.67
2022-12-12T00:11:18.237Z,42.54
2022-12-12T00:12:18.228Z,43.34
2022-12-12T00:13:18.219Z,42.86
2022-12-12T00:14:18.189Z,45.44
2022-12-12T00:15:19.233Z,41.73
2022-12-12T00:16:18.249Z,45.28
2022-12-12T00:17:18.265Z,45.44
2022-12-12T00:18:18.211Z,44.63
2022-12-12T00:19:18.152Z,45.60
2022-12-12T00:20:18.193Z,48.98
2022-12-12T00:21:18.161Z,50.11
2022-12-12T00:22:18.127Z,45.28
2022-12-12T00:23:18.125Z,50.27
2022-12-12T00:24:18.134Z,49.15
2022-12-12T00:25:18.091Z,49.47
2022-12-12T00:26:18.146Z,44.63
2022-12-12T00:27:18.079Z,50.11
2022-12-12T00:28:19.078Z,47.05
2022-12-12T00:29:18.056Z,57.52
2022-12-12T00:30:18.045Z,47.53
2022-12-12T00:31:18.116Z,46.25
2022-12-12T00:32:18.079Z,49.47
2022-12-12T00:33:18.069Z,44.15
2022-12-12T00:34:18.054Z,43.67
2022-12-12T00:35:18.009Z,47.21
2022-12-12T00:36:18.017Z,46.73
2022-12-12T00:37:17.990Z,48.34
2022-12-12T00:38:18.809Z,46.08
2022-12-12T00:39:18.584Z,44.96
2022-12-12T00:40:17.947Z,43.67
2022-12-12T00:41:17.979Z,46.08
2022-12-12T00:42:17.923Z,45.60
2022-12-12T00:43:17.934Z,51.40
2022-12-12T00:44:17.908Z,52.05
2022-12-12T00:45:18.965Z,46.73
2022-12-12T00:46:18.876Z,48.18
2022-12-12T00:47:17.891Z,59.14
2022-12-12T00:48:18.104Z,45.60
2022-12-12T00:49:17.890Z,46.25
2022-12-12T00:50:17.982Z,55.27
2022-12-12T00:51:17.850Z,49.95
2022-12-12T00:52:17.814Z,52.37
2022-12-12T00:53:17.826Z,44.63
2022-12-12T00:54:17.771Z,44.15
2022-12-12T00:55:17.872Z,43.34
2022-12-12T00:56:17.783Z,47.37
2022-12-12T00:57:17.782Z,45.44
2022-12-12T00:58:17.791Z,45.44
2022-12-12T00:59:17.780Z,46.89
2022-12-12T01:00:17.741Z,49.47
2022-12-12T01:01:17.811Z,48.34
2022-12-12T01:02:17.728Z,44.63
2022-12-12T01:03:17.787Z,54.95
2022-12-12T01:04:17.735Z,49.15
2022-12-12T01:05:17.803Z,46.73
2022-12-12T01:06:17.711Z,57.52
2022-12-12T01:07:17.683Z,54.30
2022-12-12T01:08:17.701Z,51.08
2022-12-12T01:09:17.641Z,55.27
2022-12-12T01:10:17.649Z,56.40
2022-12-12T01:11:17.652Z,46.41
2022-12-12T01:12:17.659Z,45.76
2022-12-12T01:13:17.620Z,47.70
2022-12-12T01:14:17.643Z,46.08
2022-12-12T01:15:17.683Z,45.44
2022-12-12T01:16:17.641Z,53.01
2022-12-12T01:17:17.577Z,44.15
2022-12-12T01:18:18.555Z,44.96
2022-12-12T01:19:17.562Z,47.21
2022-12-12T01:20:17.508Z,47.70
2022-12-12T01:21:17.594Z,50.92
2022-12-12T01:22:17.520Z,45.60
2022-12-12T01:23:17.565Z,45.76
2022-12-12T01:24:17.576Z,45.12
2022-12-12T01:25:17.468Z,45.12
2022-12-12T01:26:17.515Z,44.79
2022-12-12T01:27:17.448Z,46.08
2022-12-12T01:28:17.562Z,43.99
2022-12-12T01:29:17.485Z,46.25
2022-12-12T01:30:17.433Z,45.92
2022-12-12T01:31:18.451Z,48.02
2022-12-12T01:32:18.436Z,44.96
2022-12-12T01:33:17.400Z,46.89
2022-12-12T01:34:17.385Z,51.24
2022-12-12T01:35:17.400Z,52.05
2022-12-12T01:36:17.357Z,53.82
2022-12-12T01:37:17.374Z,43.67
2022-12-12T01:38:17.387Z,48.50
2022-12-12T01:39:17.420Z,47.37
2022-12-12T01:40:17.410Z,42.22
2022-12-12T01:41:17.377Z,43.34
2022-12-12T01:42:17.307Z,55.91
2022-12-12T01:43:17.936Z,56.24
2022-12-12T01:44:17.266Z,51.40
2022-12-12T01:45:17.334Z,44.15
2022-12-12T01:46:17.992Z,45.92
2022-12-12T01:47:17.261Z,63.65
2022-12-12T01:48:17.241Z,51.88
2022-12-12T01:49:17.293Z,43.83
2022-12-12T01:50:17.230Z,52.53
2022-12-12T01:51:17.185Z,52.85
2022-12-12T01:52:17.301Z,45.76
2022-12-12T01:53:17.309Z,48.98
2022-12-12T01:54:17.197Z,53.17
2022-12-12T01:55:17.332Z,49.47
2022-12-12T01:56:17.282Z,50.43
2022-12-12T01:57:17.235Z,43.02
2022-12-12T01:58:17.145Z,44.15
2022-12-12T01:59:17.163Z,42.70
2022-12-12T02:00:17.157Z,44.96
2022-12-12T02:01:17.074Z,43.67
2022-12-12T02:02:17.185Z,47.53
2022-12-12T02:03:17.127Z,50.27
2022-12-12T02:04:17.088Z,47.53
2022-12-12T02:05:17.078Z,45.44
2022-12-12T02:06:17.025Z,45.12
2022-12-12T02:07:17.025Z,57.20
2022-12-12T02:08:17.135Z,46.41
2022-12-12T02:09:17.951Z,44.31
2022-12-12T02:10:17.057Z,43.34
2022-12-12T02:11:16.994Z,47.21
2022-12-12T02:12:17.012Z,44.96
2022-12-12T02:13:17.039Z,46.73
2022-12-12T02:14:17.019Z,48.50
2022-12-12T02:15:16.996Z,43.18
2022-12-12T02:16:16.944Z,55.27
2022-12-12T02:17:16.974Z,50.27
2022-12-12T02:18:16.923Z,57.52
2022-12-12T02:19:16.938Z,45.28
2022-12-12T02:20:16.902Z,43.99
2022-12-12T02:21:16.898Z,47.70
2022-12-12T02:22:16.975Z,56.07
2022-12-12T02:23:16.856Z,42.86
2022-12-12T02:24:19.432Z,47.21
2022-12-12T02:25:17.967Z,42.70
2022-12-12T02:26:16.843Z,53.82
2022-12-12T02:27:16.890Z,48.34
2022-12-12T02:28:16.835Z,53.33
2022-12-12T02:29:16.935Z,43.67
2022-12-12T02:30:16.886Z,56.72
2022-12-12T02:31:16.845Z,50.27
2022-12-12T02:32:16.804Z,42.54
2022-12-12T02:33:16.764Z,43.18
2022-12-12T02:34:16.751Z,46.25
2022-12-12T02:35:16.804Z,63.49
2022-12-12T02:36:16.774Z,50.11
2022-12-12T02:37:16.756Z,59.78
2022-12-12T02:38:16.739Z,53.66
2022-12-12T02:39:16.699Z,51.24
2022-12-12T02:40:16.783Z,51.40
2022-12-12T02:41:16.691Z,48.82
2022-12-12T02:42:16.719Z,44.15
2022-12-12T02:43:16.704Z,59.14
2022-12-12T02:44:16.876Z,55.91
2022-12-12T02:45:16.641Z,46.73
2022-12-12T02:46:16.665Z,48.18
2022-12-12T02:47:16.700Z,50.27
2022-12-12T02:48:16.603Z,46.57
2022-12-12T02:49:16.612Z,47.70
2022-12-12T02:50:16.592Z,52.69
2022-12-12T02:51:16.592Z,45.28
2022-12-12T02:52:16.584Z,42.54
2022-12-12T02:53:16.552Z,43.83
2022-12-12T02:54:16.607Z,41.89
2022-12-12T02:55:16.528Z,47.70
2022-12-12T02:56:16.534Z,53.66
2022-12-12T02:57:16.572Z,46.08
2022-12-12T02:58:16.508Z,49.95
2022-12-12T02:59:16.523Z,54.14
2022-12-12T03:00:16.506Z,45.76
2022-12-12T03:01:16.599Z,51.88
2022-12-12T03:02:16.550Z,49.95
2022-12-12T03:03:16.440Z,49.47
2022-12-12T03:04:16.438Z,45.12
2022-12-12T03:05:16.455Z,47.70
2022-12-12T03:06:16.466Z,48.66
2022-12-12T03:07:16.390Z,49.95
2022-12-12T03:08:17.511Z,46.25
2022-12-12T03:09:16.445Z,47.37
2022-12-12T03:10:16.413Z,52.37
2022-12-12T03:11:16.388Z,51.40
2022-12-12T03:12:16.337Z,50.43
2022-12-12T03:13:16.399Z,57.69
2022-12-12T03:14:16.398Z,60.75
2022-12-12T03:15:16.317Z,46.25
2022-12-12T03:16:16.385Z,45.44
2022-12-12T03:17:16.345Z,47.86
2022-12-12T03:18:17.685Z,47.05
2022-12-12T03:19:18.304Z,46.57
2022-12-12T03:20:16.261Z,53.82
2022-12-12T03:21:16.277Z,46.25
2022-12-12T03:22:16.242Z,47.37
2022-12-12T03:23:16.234Z,53.50
2022-12-12T03:24:16.353Z,60.42
2022-12-12T03:25:16.222Z,53.82
2022-12-12T03:26:16.191Z,53.98
2022-12-12T03:27:16.192Z,60.26
2022-12-12T03:28:16.187Z,53.33
2022-12-12T03:29:16.242Z,52.37
2022-12-12T03:30:16.173Z,56.24
2022-12-12T03:31:16.174Z,48.02
2022-12-12T03:32:16.127Z,54.14
2022-12-12T03:33:16.158Z,52.53
2022-12-12T03:34:16.131Z,60.59
2022-12-12T03:35:16.107Z,54.46
2022-12-12T03:36:16.097Z,56.07
2022-12-12T03:37:16.143Z,52.05
2022-12-12T03:38:16.067Z,48.18
2022-12-12T03:39:16.151Z,60.10
2022-12-12T03:40:16.105Z,54.95
2022-12-12T03:41:16.031Z,60.59
2022-12-12T03:42:16.054Z,56.07
2022-12-12T03:43:16.062Z,53.17
2022-12-12T03:44:15.986Z,54.95
2022-12-12T03:45:16.170Z,48.34
2022-12-12T03:46:15.989Z,58.49
2022-12-12T03:47:15.986Z,62.36
2022-12-12T03:48:15.953Z,60.91
2022-12-12T03:49:15.938Z,61.39
2022-12-12T03:50:15.936Z,59.94
2022-12-12T03:51:15.938Z,48.98
2022-12-12T03:52:15.887Z,64.94
2022-12-12T03:53:15.870Z,50.11
2022-12-12T03:54:15.892Z,63.33
2022-12-12T03:55:16.028Z,56.07
2022-12-12T03:56:15.948Z,63.33
2022-12-12T03:57:15.926Z,54.95
2022-12-12T03:58:15.887Z,56.07
2022-12-12T03:59:15.827Z,62.52
2022-12-12T04:00:15.860Z,59.14
2022-12-12T04:01:16.349Z,64.29
2022-12-12T04:02:15.880Z,64.45
2022-12-12T04:03:15.892Z,60.75
2022-12-12T04:04:15.788Z,65.58
2022-12-12T04:05:15.864Z,50.11
2022-12-12T04:06:15.723Z,59.78
2022-12-12T04:07:15.749Z,65.26
2022-12-12T04:08:15.784Z,61.71
2022-12-12T04:09:15.688Z,63.81
2022-12-12T04:10:15.707Z,68.32
2022-12-12T04:11:15.702Z,61.71
2022-12-12T04:12:15.664Z,63.65
2022-12-12T04:13:15.720Z,64.45
2022-12-12T04:14:15.636Z,62.36
2022-12-12T04:15:15.979Z,63.33
2022-12-12T04:16:15.705Z,66.71
2022-12-12T04:17:15.639Z,68.32
2022-12-12T04:18:15.628Z,67.03
2022-12-12T04:19:15.597Z,69.13
2022-12-12T04:20:15.621Z,66.06
2022-12-12T04:21:15.599Z,65.26
2022-12-12T04:22:19.658Z,69.77
2022-12-12T04:23:17.646Z,67.68
2022-12-12T04:24:15.542Z,70.42
2022-12-12T04:25:15.770Z,70.74
2022-12-12T04:26:15.545Z,68.32
2022-12-12T04:27:15.513Z,65.58
2022-12-12T04:28:15.469Z,61.55
2022-12-12T04:29:15.481Z,68.48
2022-12-12T04:30:15.526Z,68.48
2022-12-12T04:31:15.525Z,69.29
2022-12-12T04:32:15.436Z,66.23
2022-12-12T04:33:15.449Z,72.19
2022-12-12T04:34:15.697Z,66.23
2022-12-12T04:35:15.748Z,70.09
2022-12-12T04:36:15.391Z,68.80
2022-12-12T04:37:15.399Z,71.06
2022-12-12T04:38:15.363Z,72.19
2022-12-12T04:39:15.403Z,70.58
2022-12-12T04:40:15.358Z,68.32
2022-12-12T04:41:15.345Z,72.51
2022-12-12T04:42:15.421Z,67.51
2022-12-12T04:43:15.301Z,64.78
2022-12-12T04:44:15.369Z,71.70
2022-12-12T04:45:15.667Z,70.09
2022-12-12T04:46:15.352Z,72.35
2022-12-12T04:47:15.250Z,70.25
2022-12-12T04:48:15.261Z,71.38
2022-12-12T04:49:15.233Z,70.09
2022-12-12T04:50:15.268Z,64.13
2022-12-12T04:51:15.226Z,68.96
2022-12-12T04:52:15.158Z,69.45
2022-12-12T04:53:18.669Z,72.51
2022-12-12T04:54:16.210Z,70.42
2022-12-12T04:55:15.543Z,71.06
2022-12-12T04:56:15.159Z,70.09
2022-12-12T04:57:15.139Z,73.15
2022-12-12T04:58:15.093Z,74.12
2022-12-12T04:59:15.087Z,66.87
2022-12-12T05:00:15.075Z,68.80
2022-12-12T05:01:15.106Z,67.03
2022-12-12T05:02:15.157Z,72.03
2022-12-12T05:03:15.066Z,71.70
2022-12-12T05:04:15.034Z,66.55
2022-12-12T05:05:15.374Z,70.90
2022-12-12T05:06:15.008Z,73.64
2022-12-12T05:07:15.043Z,71.22
2022-12-12T05:08:15.127Z,70.58
2022-12-12T05:09:14.972Z,69.29
2022-12-12T05:10:14.975Z,72.03
2022-12-12T05:11:15.019Z,69.93
2022-12-12T05:12:14.951Z,69.29
2022-12-12T05:13:14.944Z,69.61
2022-12-12T05:14:14.911Z,71.22
2022-12-12T05:15:15.281Z,71.87
2022-12-12T05:16:15.059Z,68.32
2022-12-12T05:17:14.899Z,70.58
2022-12-12T05:18:15.111Z,68.16
2022-12-12T05:19:14.865Z,69.13
2022-12-12T05:20:14.843Z,71.87
2022-12-12T05:21:14.865Z,71.06
2022-12-12T05:22:14.867Z,67.51
2022-12-12T05:23:14.855Z,72.83
2022-12-12T05:24:14.819Z,70.25
2022-12-12T05:25:15.065Z,72.35
2022-12-12T05:26:14.835Z,72.83
2022-12-12T05:27:14.784Z,73.48
2022-12-12T05:28:14.791Z,72.67
2022-12-12T05:29:14.752Z,69.93
2022-12-12T05:30:14.739Z,72.51
2022-12-12T05:31:14.752Z,71.38
2022-12-12T05:32:14.727Z,73.15
2022-12-12T05:33:14.830Z,74.77
2022-12-12T05:34:14.745Z,73.96
2022-12-12T05:35:14.986Z,71.06
2022-12-12T05:36:14.703Z,71.38
2022-12-12T05:37:14.662Z,72.83
2022-12-12T05:38:14.650Z,74.28
2022-12-12T05:39:14.681Z,73.96
2022-12-12T05:40:14.644Z,74.93
2022-12-12T05:41:14.606Z,69.13
2022-12-12T05:42:14.620Z,73.96
2022-12-12T05:43:14.602Z,74.28
2022-12-12T05:44:14.587Z,70.90
2022-12-12T05:45:14.961Z,74.93
2022-12-12T05:46:14.696Z,71.54
2022-12-12T05:47:14.545Z,70.58
2022-12-12T05:48:16.456Z,69.29
2022-12-12T05:49:15.508Z,73.48
2022-12-12T05:50:14.505Z,73.96
2022-12-12T05:51:14.778Z,73.96
2022-12-12T05:52:14.489Z,73.15
2022-12-12T05:53:14.624Z,73.96
2022-12-12T05:54:14.465Z,74.77
2022-12-12T05:55:14.750Z,69.77
2022-12-12T05:56:14.467Z,72.35
2022-12-12T05:57:14.461Z,66.23
2022-12-12T05:58:14.438Z,65.42
2022-12-12T05:59:14.421Z,73.80
2022-12-12T06:00:14.400Z,67.51
2022-12-12T06:01:14.425Z,73.96
2022-12-12T06:02:14.415Z,74.93
2022-12-12T06:03:14.377Z,70.74
2022-12-12T06:04:14.386Z,68.00
2022-12-12T06:05:14.676Z,72.35
2022-12-12T06:06:14.377Z,74.44
2022-12-12T06:07:14.321Z,72.19
2022-12-12T06:08:14.365Z,72.67
2022-12-12T06:09:15.320Z,68.64
2022-12-12T06:10:14.806Z,72.83
2022-12-12T06:11:14.347Z,74.77
2022-12-12T06:12:14.274Z,74.28
2022-12-12T06:13:14.290Z,74.77
2022-12-12T06:14:14.238Z,70.58
2022-12-12T06:15:14.989Z,74.93
2022-12-12T06:16:14.273Z,72.83
2022-12-12T06:17:14.242Z,74.60
2022-12-12T06:18:14.185Z,67.68
2022-12-12T06:19:14.198Z,66.23
2022-12-12T06:20:14.173Z,74.44
2022-12-12T06:21:14.178Z,72.99
2022-12-12T06:22:14.183Z,70.74
2022-12-12T06:23:14.182Z,73.48
2022-12-12T06:24:14.135Z,73.64
2022-12-12T06:25:14.584Z,71.87
2022-12-12T06:26:14.109Z,73.96
2022-12-12T06:27:14.108Z,74.44
2022-12-12T06:28:14.087Z,72.03
2022-12-12T06:29:14.117Z,76.54
2022-12-12T06:30:14.080Z,73.32
2022-12-12T06:31:14.113Z,72.35
2022-12-12T06:32:14.058Z,74.44
2022-12-12T06:33:14.047Z,74.28
2022-12-12T06:34:14.018Z,73.64
2022-12-12T06:35:14.251Z,73.96
2022-12-12T06:36:14.010Z,74.44
2022-12-12T06:37:17.208Z,72.99
2022-12-12T06:38:14.993Z,72.83
2022-12-12T06:39:13.975Z,71.38
2022-12-12T06:40:13.972Z,76.22
2022-12-12T06:41:13.945Z,72.35
2022-12-12T06:42:13.915Z,69.61
2022-12-12T06:43:14.232Z,73.96
2022-12-12T06:44:13.893Z,71.70
2022-12-12T06:45:16.836Z,70.58
2022-12-12T06:46:13.956Z,75.09
2022-12-12T06:47:13.881Z,72.99
2022-12-12T06:48:13.862Z,71.38
2022-12-12T06:49:13.879Z,72.19
2022-12-12T06:50:15.836Z,72.67
2022-12-12T06:51:13.871Z,75.41
2022-12-12T06:52:13.819Z,73.80
2022-12-12T06:53:13.812Z,69.29
2022-12-12T06:54:13.836Z,72.19
2022-12-12T06:55:14.036Z,73.96
2022-12-12T06:56:13.777Z,74.12
2022-12-12T06:57:16.277Z,72.99
2022-12-12T06:58:13.908Z,72.19
2022-12-12T06:59:14.700Z,71.70
2022-12-12T07:00:14.720Z,75.73
2022-12-12T07:01:13.788Z,72.83
2022-12-12T07:02:13.718Z,72.51
2022-12-12T07:03:13.750Z,73.80
2022-12-12T07:04:13.748Z,70.25
2022-12-12T07:05:14.050Z,72.99
2022-12-12T07:06:13.682Z,71.87
2022-12-12T07:07:13.657Z,71.06
2022-12-12T07:08:13.749Z,68.96
2022-12-12T07:09:13.637Z,71.70
2022-12-12T07:10:14.257Z,70.58
2022-12-12T07:11:13.626Z,68.80
2022-12-12T07:12:13.589Z,72.03
2022-12-12T07:13:13.582Z,71.87
2022-12-12T07:14:13.570Z,73.48
2022-12-12T07:15:13.742Z,68.32
2022-12-12T07:16:13.839Z,72.35
2022-12-12T07:17:13.555Z,70.42
2022-12-12T07:18:13.545Z,72.19
2022-12-12T07:19:13.568Z,72.35
2022-12-12T07:20:13.584Z,73.96
2022-12-12T07:21:13.504Z,73.64
2022-12-12T07:22:13.497Z,74.44
2022-12-12T07:23:13.509Z,69.93
2022-12-12T07:24:13.478Z,69.61
2022-12-12T07:25:14.690Z,70.09
2022-12-12T07:26:13.473Z,72.35
2022-12-12T07:27:19.969Z,73.48
2022-12-12T07:28:15.157Z,73.48
2022-12-12T07:29:13.510Z,69.77
2022-12-12T07:30:13.416Z,74.44
2022-12-12T07:31:13.455Z,71.87
2022-12-12T07:32:13.418Z,73.48
2022-12-12T07:33:13.397Z,72.03
2022-12-12T07:34:13.357Z,74.28
2022-12-12T07:35:13.776Z,71.06
2022-12-12T07:36:13.429Z,73.96
2022-12-12T07:37:13.335Z,72.03
2022-12-12T07:38:13.352Z,73.80
2022-12-12T07:39:17.331Z,69.93
2022-12-12T07:40:15.341Z,72.03
2022-12-12T07:41:13.382Z,68.00
2022-12-12T07:42:13.304Z,69.45
2022-12-12T07:43:13.302Z,75.25
2022-12-12T07:44:13.299Z,68.48
2022-12-12T07:45:18.296Z,72.67
2022-12-12T07:46:14.292Z,73.32
2022-12-12T07:47:13.249Z,71.22
2022-12-12T07:48:13.214Z,72.51
2022-12-12T07:49:13.214Z,68.80
2022-12-12T07:50:13.186Z,70.58
2022-12-12T07:51:13.167Z,74.28
2022-12-12T07:52:13.210Z,73.48
2022-12-12T07:53:13.221Z,70.42
2022-12-12T07:54:13.143Z,71.06
2022-12-12T07:55:13.443Z,69.77
2022-12-12T07:56:13.120Z,69.61
2022-12-12T07:57:13.133Z,69.29
2022-12-12T07:58:13.108Z,70.90
2022-12-12T07:59:13.360Z,71.38
2022-12-12T08:00:13.102Z,69.13
2022-12-12T08:01:14.911Z,68.80
2022-12-12T08:02:14.152Z,69.29
2022-12-12T08:03:13.213Z,71.70
2022-12-12T08:04:13.024Z,72.03
2022-12-12T08:05:13.945Z,69.77
2022-12-12T08:06:13.014Z,68.32
2022-12-12T08:07:12.994Z,68.48
2022-12-12T08:08:13.835Z,69.29
2022-12-12T08:09:13.028Z,69.13
2022-12-12T08:10:13.014Z,69.77
2022-12-12T08:11:13.017Z,68.32
2022-12-12T08:12:12.983Z,70.58
2022-12-12T08:13:13.357Z,73.80
2022-12-12T08:14:13.852Z,72.19
2022-12-12T08:15:13.172Z,71.87
2022-12-12T08:16:12.937Z,73.80
2022-12-12T08:17:13.771Z,73.64
2022-12-12T08:18:12.900Z,72.03
2022-12-12T08:19:13.114Z,69.93
2022-12-12T08:20:12.860Z,65.90
2022-12-12T08:21:12.932Z,67.51
2022-12-12T08:22:12.877Z,72.51
2022-12-12T08:23:13.851Z,73.15
2022-12-12T08:24:12.855Z,70.90
2022-12-12T08:25:13.038Z,65.58
2022-12-12T08:26:13.783Z,67.03
2022-12-12T08:27:15.814Z,71.22
2022-12-12T08:28:13.893Z,71.22
2022-12-12T08:29:12.766Z,69.77
2022-12-12T08:30:12.781Z,67.03
2022-12-12T08:31:12.810Z,68.32
2022-12-12T08:32:12.716Z,71.87
2022-12-12T08:33:12.751Z,70.09
2022-12-12T08:34:14.244Z,73.32
2022-12-12T08:35:13.080Z,71.87
2022-12-12T08:36:12.680Z,71.54
2022-12-12T08:37:12.661Z,72.51
2022-12-12T08:38:12.640Z,69.45
2022-12-12T08:39:12.701Z,70.90
2022-12-12T08:40:12.653Z,70.74
2022-12-12T08:41:12.681Z,68.96
2022-12-12T08:42:13.183Z,73.15
2022-12-12T08:43:13.349Z,70.74
2022-12-12T08:44:12.649Z,68.64
2022-12-12T08:45:12.904Z,70.09
2022-12-12T08:46:17.524Z,68.00
2022-12-12T08:47:15.317Z,74.12
2022-12-12T08:48:12.589Z,72.83
2022-12-12T08:49:12.561Z,64.45
2022-12-12T08:50:12.618Z,69.61
2022-12-12T08:51:12.570Z,60.91
2022-12-12T08:52:12.537Z,64.29
2022-12-12T08:53:12.478Z,64.78
2022-12-12T08:54:14.414Z,73.96
2022-12-12T08:55:12.924Z,73.15
2022-12-12T08:56:12.509Z,72.83
2022-12-12T08:57:12.553Z,68.80
2022-12-12T08:58:12.562Z,69.61
2022-12-12T08:59:13.269Z,69.13
2022-12-12T09:00:12.462Z,71.06
2022-12-12T09:01:44.496Z,71.06
2022-12-12T09:02:12.657Z,77.34
2022-12-12T09:03:12.452Z,66.71
2022-12-12T09:04:13.368Z,66.23
2022-12-12T09:05:13.607Z,71.70
2022-12-12T09:06:12.453Z,70.25
2022-12-12T09:07:12.430Z,69.61
2022-12-12T09:08:13.395Z,69.29
2022-12-12T09:09:13.216Z,69.77
2022-12-12T09:10:14.267Z,68.00
2022-12-12T09:11:12.338Z,69.61
2022-12-12T09:12:12.376Z,70.58
2022-12-12T09:13:12.291Z,69.93
2022-12-12T09:14:12.298Z,67.84
2022-12-12T09:15:12.657Z,67.35
2022-12-12T09:16:12.391Z,70.74
2022-12-12T09:17:12.243Z,67.68
2022-12-12T09:18:13.285Z,69.61
2022-12-12T09:19:12.275Z,69.93
2022-12-12T09:20:13.226Z,69.45
2022-12-12T09:21:13.223Z,65.58
2022-12-12T09:22:13.208Z,69.61
2022-12-12T09:23:12.240Z,70.90
2022-12-12T09:24:12.200Z,67.35
2022-12-12T09:25:12.597Z,70.74
2022-12-12T09:26:12.228Z,70.74
2022-12-12T09:27:12.176Z,72.35
2022-12-12T09:28:12.146Z,67.19
2022-12-12T09:29:12.127Z,73.48
2022-12-12T09:30:12.190Z,72.19
2022-12-12T09:31:13.899Z,73.48
2022-12-12T09:32:12.124Z,68.48
2022-12-12T09:33:12.799Z,71.87
2022-12-12T09:34:12.080Z,67.68
2022-12-12T09:35:13.144Z,66.55
2022-12-12T09:36:12.072Z,71.22
2022-12-12T09:37:12.087Z,65.90
2022-12-12T09:38:14.665Z,67.84
2022-12-12T09:39:13.046Z,71.70
2022-12-12T09:40:12.043Z,71.06
2022-12-12T09:41:12.017Z,73.32
2022-12-12T09:42:12.010Z,68.64
2022-12-12T09:43:12.009Z,71.06
2022-12-12T09:44:12.023Z,67.19
2022-12-12T09:45:12.334Z,72.51
2022-12-12T09:46:12.058Z,69.13
2022-12-12T09:47:11.974Z,73.15
2022-12-12T09:48:11.957Z,69.61
2022-12-12T09:49:11.918Z,69.77
2022-12-12T09:50:12.331Z,72.83
2022-12-12T09:51:11.892Z,73.32
2022-12-12T09:52:11.882Z,67.68
2022-12-12T09:53:12.795Z,72.67
2022-12-12T09:54:11.885Z,70.58
2022-12-12T09:55:11.935Z,67.03
2022-12-12T09:56:11.888Z,69.45
2022-12-12T09:57:11.891Z,69.61
2022-12-12T09:58:11.818Z,69.77
2022-12-12T09:59:11.900Z,72.35
2022-12-12T10:00:12.237Z,69.13
2022-12-12T10:01:11.917Z,67.19
2022-12-12T10:02:12.815Z,72.35
2022-12-12T10:03:11.799Z,69.61
2022-12-12T10:04:12.173Z,69.13
2022-12-12T10:05:11.785Z,72.19
2022-12-12T10:06:36.613Z,73.80
2022-12-12T10:07:13.725Z,72.19
2022-12-12T10:08:11.788Z,74.93
2022-12-12T10:09:11.702Z,70.42
2022-12-12T10:10:12.163Z,71.22
2022-12-12T10:11:12.426Z,68.00
2022-12-12T10:12:14.163Z,72.99
2022-12-12T10:13:11.685Z,71.22
2022-12-12T10:14:11.736Z,68.16
2022-12-12T10:15:11.832Z,73.32
2022-12-12T10:16:13.191Z,69.45
2022-12-12T10:17:11.640Z,67.84
2022-12-12T10:18:11.628Z,70.74
2022-12-12T10:19:11.674Z,70.09
2022-12-12T10:20:12.668Z,73.80
2022-12-12T10:21:11.574Z,70.09
2022-12-12T10:22:11.661Z,70.58
2022-12-12T10:23:11.612Z,72.51
2022-12-12T10:24:11.574Z,69.77
2022-12-12T10:25:11.563Z,66.06
2022-12-12T10:26:11.749Z,68.32
2022-12-12T10:27:11.563Z,72.35
2022-12-12T10:28:11.558Z,70.90
2022-12-12T10:29:11.543Z,69.93
2022-12-12T10:30:11.974Z,68.80
2022-12-12T10:31:11.614Z,69.13
2022-12-12T10:32:11.494Z,69.77
2022-12-12T10:33:11.492Z,70.09
2022-12-12T10:34:11.486Z,74.12
2022-12-12T10:35:17.797Z,71.06
2022-12-12T10:36:14.620Z,72.67
2022-12-12T10:37:12.627Z,73.15
2022-12-12T10:38:11.403Z,71.54
2022-12-12T10:39:11.418Z,72.67
2022-12-12T10:40:11.400Z,72.35
2022-12-12T10:41:11.406Z,63.49
2022-12-12T10:42:11.376Z,72.19
2022-12-12T10:43:11.346Z,70.58
2022-12-12T10:44:11.366Z,67.51
2022-12-12T10:45:11.695Z,69.77
2022-12-12T10:46:12.327Z,71.38
2022-12-12T10:47:11.350Z,72.35
2022-12-12T10:48:11.366Z,73.15
2022-12-12T10:49:11.331Z,65.58
2022-12-12T10:50:13.532Z,70.25
2022-12-12T10:51:12.343Z,68.48
2022-12-12T10:52:11.272Z,71.06
2022-12-12T10:53:11.307Z,75.57
2022-12-12T10:54:11.372Z,69.29
2022-12-12T10:55:12.444Z,72.35
2022-12-12T10:56:12.231Z,70.09
2022-12-12T10:57:16.682Z,68.00
2022-12-12T10:58:13.255Z,71.70
2022-12-12T10:59:12.120Z,69.77
2022-12-12T11:00:11.189Z,70.58
2022-12-12T11:01:11.290Z,72.67
2022-12-12T11:02:11.399Z,70.90
2022-12-12T11:03:11.505Z,73.15
2022-12-12T11:04:11.124Z,71.06
2022-12-12T11:05:11.365Z,69.61
2022-12-12T11:06:11.128Z,71.70
2022-12-12T11:07:11.097Z,71.06
2022-12-12T11:08:11.842Z,72.35
2022-12-12T11:09:11.156Z,72.51
2022-12-12T11:10:11.090Z,71.38
2022-12-12T11:11:11.081Z,71.06
2022-12-12T11:12:11.079Z,73.15
2022-12-12T11:13:11.032Z,69.29
2022-12-12T11:14:12.109Z,73.48
2022-12-12T11:15:11.406Z,72.35
2022-12-12T11:16:13.559Z,68.80
2022-12-12T11:17:12.038Z,68.96
2022-12-12T11:18:11.029Z,69.61
2022-12-12T11:19:10.981Z,70.74
2022-12-12T11:20:10.986Z,69.61
2022-12-12T11:21:11.292Z,67.84
2022-12-12T11:22:10.969Z,71.38
2022-12-12T11:23:18.002Z,73.32
2022-12-12T11:24:13.762Z,72.99
2022-12-12T11:25:11.203Z,72.19
2022-12-12T11:26:10.931Z,62.20
2022-12-12T11:27:12.848Z,68.32
2022-12-12T11:28:10.862Z,73.80
2022-12-12T11:29:10.874Z,73.15
2022-12-12T11:30:10.858Z,72.67
2022-12-12T11:31:10.849Z,73.64
2022-12-12T11:32:11.756Z,74.44
2022-12-12T11:33:10.848Z,71.06
2022-12-12T11:34:10.820Z,71.70
2022-12-12T11:35:11.227Z,74.44
2022-12-12T11:36:10.808Z,69.45
2022-12-12T11:37:10.798Z,74.12
2022-12-12T11:38:10.785Z,67.84
2022-12-12T11:39:10.790Z,73.48
2022-12-12T11:40:10.767Z,71.06
2022-12-12T11:41:10.730Z,69.29
2022-12-12T11:42:10.726Z,68.96
2022-12-12T11:43:10.697Z,72.51
2022-12-12T11:44:13.430Z,73.15
2022-12-12T11:45:11.985Z,70.90
2022-12-12T11:46:10.741Z,64.61
2022-12-12T11:47:10.657Z,74.77
2022-12-12T11:48:11.249Z,70.09
2022-12-12T11:49:10.681Z,73.96
2022-12-12T11:50:11.106Z,70.42
2022-12-12T11:51:11.669Z,71.38
2022-12-12T11:52:10.621Z,70.42
2022-12-12T11:53:10.609Z,68.64
2022-12-12T11:54:10.669Z,68.16
2022-12-12T11:55:10.872Z,70.90
2022-12-12T11:56:10.582Z,71.38
2022-12-12T11:57:10.567Z,66.06
2022-12-12T11:58:10.551Z,71.70
2022-12-12T11:59:14.275Z,71.87
2022-12-12T12:00:10.529Z,74.60
2022-12-12T12:01:10.594Z,73.48
2022-12-12T12:02:10.586Z,74.60
2022-12-12T12:03:12.685Z,73.96
2022-12-12T12:04:10.569Z,73.96
2022-12-12T12:05:10.742Z,72.51
2022-12-12T12:06:11.248Z,73.64
2022-12-12T12:07:10.482Z,74.44
2022-12-12T12:08:10.481Z,69.61
2022-12-12T12:09:10.450Z,70.09
2022-12-12T12:10:10.437Z,76.22
2022-12-12T12:11:10.465Z,71.87
2022-12-12T12:12:10.442Z,72.19
2022-12-12T12:13:10.424Z,72.99
2022-12-12T12:14:10.383Z,73.80
2022-12-12T12:15:10.441Z,72.99
2022-12-12T12:16:11.292Z,69.29
2022-12-12T12:17:10.375Z,72.99
2022-12-12T12:18:11.278Z,73.80
2022-12-12T12:19:10.359Z,72.19
2022-12-12T12:20:10.311Z,74.77
2022-12-12T12:21:10.304Z,72.83
2022-12-12T12:22:10.348Z,73.32
2022-12-12T12:23:10.806Z,72.83
2022-12-12T12:24:10.299Z,69.13
2022-12-12T12:25:11.561Z,70.42
2022-12-12T12:26:10.388Z,72.19
2022-12-12T12:27:10.246Z,72.35
2022-12-12T12:28:10.247Z,71.87
2022-12-12T12:29:10.279Z,73.32
2022-12-12T12:30:10.204Z,72.99
2022-12-12T12:31:10.276Z,73.32
2022-12-12T12:32:10.243Z,73.48
2022-12-12T12:33:10.199Z,72.35
2022-12-12T12:34:10.200Z,72.51
2022-12-12T12:35:10.204Z,72.51
2022-12-12T12:36:10.175Z,74.44
2022-12-12T12:37:10.147Z,69.93
2022-12-12T12:38:10.202Z,73.48
2022-12-12T12:39:10.132Z,71.54
2022-12-12T12:40:10.178Z,70.25
2022-12-12T12:41:10.147Z,73.64
2022-12-12T12:42:10.127Z,71.70
2022-12-12T12:43:10.086Z,75.09
2022-12-12T12:44:10.749Z,74.12
2022-12-12T12:45:10.717Z,74.28
2022-12-12T12:46:10.155Z,68.48
2022-12-12T12:47:10.717Z,74.93
2022-12-12T12:48:13.630Z,75.25
2022-12-12T12:49:10.043Z,72.03
2022-12-12T12:50:10.083Z,73.15
2022-12-12T12:51:09.995Z,73.64
2022-12-12T12:52:10.046Z,71.70